createdAt,value
2019-02-21T00:02:20.158Z,10.97
2019-02-21T00:04:49.340Z,13.20
2019-02-21T00:07:18.502Z,13.00
2019-02-21T00:09:47.704Z,12.97
2019-02-21T00:12:16.859Z,13.23
2019-02-21T00:14:46.135Z,13.47
2019-02-21T00:17:15.328Z,13.93
2019-02-21T00:19:44.772Z,13.83
2019-02-21T00:22:13.941Z,14.70
2019-02-21T00:24:43.638Z,14.03
2019-02-21T00:27:12.798Z,14.27
2019-02-21T00:29:42.074Z,14.10
2019-02-21T00:32:11.343Z,14.90
2019-02-21T00:34:40.547Z,14.63
2019-02-21T00:37:09.830Z,14.87
2019-02-21T00:39:39.073Z,14.93
2019-02-21T00:42:08.329Z,15.93
2019-02-21T00:44:37.735Z,15.73
2019-02-21T00:47:07.351Z,16.43
2019-02-21T00:49:36.607Z,16.50
2019-02-21T00:52:05.822Z,16.70
2019-02-21T00:54:35.015Z,16.40
2019-02-21T00:57:04.539Z,17.03
2019-02-21T00:59:33.743Z,16.37
2019-02-21T01:02:03.009Z,15.37
2019-02-21T01:04:32.278Z,16.93
2019-02-21T01:07:05.296Z,17.27
2019-02-21T01:09:34.545Z,17.57
2019-02-21T01:12:03.731Z,17.73
2019-02-21T01:14:33.090Z,17.60
2019-02-21T01:17:02.392Z,17.33
2019-02-21T01:19:31.520Z,17.97
2019-02-21T01:22:02.148Z,17.30
2019-02-21T01:24:31.291Z,17.20
2019-02-21T01:27:00.473Z,19.07
2019-02-21T01:29:29.640Z,11.23
2019-02-21T01:31:58.859Z,17.07
2019-02-21T01:34:28.116Z,16.43
2019-02-21T01:36:57.513Z,17.33
2019-02-21T01:39:26.702Z,18.60
2019-02-21T01:41:55.958Z,17.80
2019-02-21T01:44:25.160Z,17.60
2019-02-21T01:46:54.299Z,17.47
2019-02-21T01:49:23.497Z,14.57
2019-02-21T01:51:52.796Z,18.17
2019-02-21T01:54:22.163Z,18.83
2019-02-21T01:56:51.464Z,18.03
2019-02-21T01:59:20.624Z,17.93
2019-02-21T02:01:50.120Z,15.33
2019-02-21T02:04:19.280Z,15.97
2019-02-21T02:06:48.459Z,15.40
2019-02-21T02:09:17.760Z,17.10
2019-02-21T02:11:47.065Z,17.27
2019-02-21T02:14:16.252Z,17.20
2019-02-21T02:16:45.403Z,16.60
2019-02-21T02:19:14.597Z,15.93
2019-02-21T02:21:43.765Z,17.97
2019-02-21T02:24:14.859Z,17.30
2019-02-21T02:26:44.092Z,16.93
2019-02-21T02:29:13.469Z,17.10
2019-02-21T02:31:42.750Z,16.30
2019-02-21T02:34:11.900Z,17.63
2019-02-21T02:36:41.199Z,16.47
2019-02-21T02:39:10.412Z,16.80
2019-02-21T02:41:41.726Z,18.63
2019-02-21T02:44:10.917Z,17.43
2019-02-21T02:46:40.140Z,16.33
2019-02-21T02:49:09.298Z,17.07
2019-02-21T02:51:38.576Z,17.07
2019-02-21T02:54:08.063Z,17.17
2019-02-21T02:56:37.263Z,17.87
2019-02-21T02:59:06.518Z,17.60
2019-02-21T03:01:35.681Z,17.10
2019-02-21T03:04:04.877Z,17.83
2019-02-21T03:06:34.071Z,17.43
2019-02-21T03:09:04.558Z,18.13
2019-02-21T03:11:33.767Z,18.57
2019-02-21T03:14:02.982Z,18.93
2019-02-21T03:16:32.173Z,18.70
2019-02-21T03:19:01.436Z,18.23
2019-02-21T03:21:30.629Z,20.23
2019-02-21T03:23:59.822Z,18.77
2019-02-21T03:26:29.029Z,19.00
2019-02-21T03:28:58.165Z,17.53
2019-02-21T03:31:27.808Z,19.70
2019-02-21T03:33:56.997Z,17.70
2019-02-21T03:36:26.253Z,16.80
2019-02-21T03:38:55.538Z,18.50
2019-02-21T03:41:24.715Z,18.20
2019-02-21T03:43:53.881Z,19.30
2019-02-21T03:46:23.052Z,19.97
2019-02-21T03:48:52.348Z,20.80
2019-02-21T03:51:21.639Z,18.80
2019-02-21T03:53:50.985Z,19.73
2019-02-21T03:56:20.110Z,19.93
2019-02-21T03:58:49.342Z,19.30
2019-02-21T04:01:18.481Z,19.00
2019-02-21T04:03:47.637Z,18.50
2019-02-21T04:06:16.846Z,19.30
2019-02-21T04:08:46.003Z,18.67
2019-02-21T04:11:15.159Z,18.50
2019-02-21T04:13:44.354Z,18.37
2019-02-21T04:16:13.524Z,18.83
2019-02-21T04:18:42.781Z,20.40
2019-02-21T04:21:12.072Z,17.63
2019-02-21T04:23:41.271Z,19.80
2019-02-21T04:26:10.707Z,18.67
2019-02-21T04:28:39.888Z,19.33
2019-02-21T04:31:09.082Z,18.47
2019-02-21T04:33:38.383Z,19.20
2019-02-21T04:36:07.748Z,19.30
2019-02-21T04:38:36.901Z,19.47
2019-02-21T04:41:06.107Z,19.47
2019-02-21T04:43:35.402Z,19.10
2019-02-21T04:46:04.602Z,20.10
2019-02-21T04:48:33.861Z,21.00
2019-02-21T04:51:03.086Z,20.53
2019-02-21T04:53:32.330Z,21.67
2019-02-21T04:56:02.105Z,22.00
2019-02-21T04:58:31.355Z,20.83
2019-02-21T05:01:00.571Z,20.90
2019-02-21T05:03:29.732Z,21.07
2019-02-21T05:05:59.010Z,21.53
2019-02-21T05:08:28.174Z,21.27
2019-02-21T05:10:57.357Z,21.83
2019-02-21T05:13:26.555Z,20.97
2019-02-21T05:15:55.764Z,22.63
2019-02-21T05:18:24.904Z,22.37
2019-02-21T05:20:54.117Z,22.47
2019-02-21T05:23:23.265Z,22.53
2019-02-21T05:25:52.456Z,24.10
2019-02-21T05:28:25.806Z,24.87
2019-02-21T05:30:58.401Z,24.90
2019-02-21T05:33:55.772Z,25.07
2019-02-21T05:36:43.910Z,25.13
2019-02-21T05:39:38.624Z,25.43
2019-02-21T05:42:25.299Z,26.10
2019-02-21T05:45:12.236Z,25.40
2019-02-21T05:47:54.817Z,26.50
2019-02-21T05:50:39.135Z,25.50
2019-02-21T05:53:33.571Z,27.47
2019-02-21T05:56:17.701Z,25.00
2019-02-21T05:59:08.601Z,26.53
2019-02-21T06:01:51.347Z,26.30
2019-02-21T06:04:37.684Z,24.47
2019-02-21T06:07:40.815Z,24.47
2019-02-21T06:10:33.498Z,25.03
2019-02-21T06:13:08.614Z,24.03
2019-02-21T06:15:59.790Z,23.90
2019-02-21T06:18:50.706Z,21.70
2019-02-21T06:21:32.559Z,22.30
2019-02-21T06:24:20.793Z,25.07
2019-02-21T06:27:00.758Z,23.17
2019-02-21T06:29:37.523Z,24.00
2019-02-21T06:32:15.499Z,23.67
2019-02-21T06:34:44.661Z,22.03
2019-02-21T06:37:13.865Z,22.53
2019-02-21T06:39:43.180Z,21.00
2019-02-21T06:42:12.359Z,20.10
2019-02-21T06:44:41.506Z,22.23
2019-02-21T06:47:10.875Z,19.80
2019-02-21T06:49:40.079Z,19.70
2019-02-21T06:52:09.305Z,19.27
2019-02-21T06:54:38.498Z,19.07
2019-02-21T06:57:07.652Z,19.33
2019-02-21T06:59:42.449Z,19.23
2019-02-21T07:02:07.733Z,19.80
2019-02-21T07:04:36.925Z,17.40
2019-02-21T07:07:06.058Z,19.30
2019-02-21T07:09:35.271Z,16.87
2019-02-21T07:12:04.457Z,18.53
2019-02-21T07:14:34.533Z,19.37
2019-02-21T07:17:03.860Z,18.90
2019-02-21T07:19:33.054Z,20.20
2019-02-21T07:22:02.215Z,19.90
2019-02-21T07:24:31.606Z,20.00
2019-02-21T07:27:01.003Z,21.27
2019-02-21T07:29:30.200Z,20.27
2019-02-21T07:31:59.438Z,20.33
2019-02-21T07:34:30.516Z,21.37
2019-02-21T07:36:59.489Z,21.00
2019-02-21T07:39:35.567Z,21.97
2019-02-21T07:41:59.682Z,22.03
2019-02-21T07:44:28.968Z,23.80
2019-02-21T07:46:58.215Z,22.10
2019-02-21T07:49:27.394Z,23.67
2019-02-21T07:51:56.624Z,25.53
2019-02-21T07:54:25.782Z,20.63
2019-02-21T07:56:54.978Z,26.07
2019-02-21T07:59:24.283Z,25.23
2019-02-21T08:01:53.539Z,25.40
2019-02-21T08:04:22.722Z,24.60
2019-02-21T08:06:51.907Z,25.27
2019-02-21T08:09:21.144Z,25.40
2019-02-21T08:11:50.375Z,26.20
2019-02-21T08:14:19.570Z,25.87
2019-02-21T08:16:48.764Z,26.37
2019-02-21T08:19:17.937Z,26.10
2019-02-21T08:21:47.235Z,25.97
2019-02-21T08:24:16.763Z,27.87
2019-02-21T08:26:47.068Z,28.83
2019-02-21T08:29:16.240Z,26.50
2019-02-21T08:31:45.550Z,26.80
2019-02-21T08:34:21.928Z,27.37
2019-02-21T08:36:51.124Z,23.23
2019-02-21T08:39:20.322Z,26.03
2019-02-21T08:41:49.473Z,26.43
2019-02-21T08:44:18.722Z,28.90
2019-02-21T08:46:47.876Z,26.53
2019-02-21T08:49:17.137Z,26.07
2019-02-21T08:51:46.278Z,27.80
2019-02-21T08:54:15.484Z,27.60
2019-02-21T08:56:44.710Z,28.23
2019-02-21T08:59:13.963Z,28.00
2019-02-21T09:01:43.153Z,27.53
2019-02-21T09:04:26.483Z,25.63
2019-02-21T09:06:43.300Z,26.30
2019-02-21T09:09:12.658Z,28.37
2019-02-21T09:11:41.857Z,27.90
2019-02-21T09:14:11.119Z,28.00
2019-02-21T09:16:40.277Z,29.33
2019-02-21T09:19:09.961Z,24.23
2019-02-21T09:21:39.127Z,26.20
2019-02-21T09:24:08.292Z,27.30
2019-02-21T09:26:37.480Z,24.93
2019-02-21T09:29:06.638Z,23.57
2019-02-21T09:31:36.012Z,28.67
2019-02-21T09:34:05.168Z,23.53
2019-02-21T09:36:34.335Z,25.77
2019-02-21T09:39:04.657Z,26.47
2019-02-21T09:41:33.948Z,26.67
2019-02-21T09:44:03.281Z,26.00
2019-02-21T09:46:32.526Z,21.03
2019-02-21T09:49:03.072Z,25.67
2019-02-21T09:51:32.372Z,24.47
2019-02-21T09:54:01.739Z,25.63
2019-02-21T09:56:31.147Z,26.23
2019-02-21T09:59:00.349Z,25.63
2019-02-21T10:01:29.494Z,25.67
2019-02-21T10:03:58.689Z,23.10
2019-02-21T10:06:27.873Z,23.27
2019-02-21T10:08:57.185Z,25.97
2019-02-21T10:11:26.380Z,24.00
2019-02-21T10:13:55.541Z,25.17
2019-02-21T10:16:27.177Z,25.50
2019-02-21T10:18:56.385Z,24.10
2019-02-21T10:21:25.620Z,24.40
2019-02-21T10:23:56.559Z,24.90
2019-02-21T10:26:26.080Z,25.77
2019-02-21T10:28:55.283Z,25.43
2019-02-21T10:31:24.528Z,26.27
2019-02-21T10:33:53.717Z,27.30
2019-02-21T10:36:22.885Z,26.93
2019-02-21T10:38:52.088Z,27.43
2019-02-21T10:41:21.265Z,26.67
2019-02-21T10:43:50.490Z,28.27
2019-02-21T10:46:19.935Z,29.17
2019-02-21T10:48:49.088Z,27.97
2019-02-21T10:51:18.256Z,31.00
2019-02-21T10:53:47.466Z,32.60
2019-02-21T10:56:16.715Z,32.73
2019-02-21T10:58:46.017Z,33.30
2019-02-21T11:01:15.422Z,32.83
2019-02-21T11:03:44.691Z,34.63
2019-02-21T11:06:13.885Z,33.83
2019-02-21T11:08:43.095Z,34.40
2019-02-21T11:11:12.359Z,34.77
2019-02-21T11:13:41.581Z,34.77
2019-02-21T11:16:10.781Z,35.87
2019-02-21T11:18:39.957Z,36.30
2019-02-21T11:21:09.190Z,35.43
2019-02-21T11:23:38.933Z,35.47
2019-02-21T11:26:08.196Z,31.17
2019-02-21T11:28:37.356Z,33.20
2019-02-21T11:31:06.578Z,32.17
2019-02-21T11:33:35.858Z,31.80
2019-02-21T11:36:05.079Z,31.67
2019-02-21T11:38:34.267Z,31.63
2019-02-21T11:41:03.476Z,33.13
2019-02-21T11:43:32.675Z,33.50
2019-02-21T11:46:01.839Z,31.93
2019-02-21T11:48:31.028Z,28.83
2019-02-21T11:51:00.236Z,35.13
2019-02-21T11:53:29.390Z,33.07
2019-02-21T11:55:58.547Z,31.50
2019-02-21T11:58:27.993Z,35.17
2019-02-21T12:00:57.249Z,34.80
2019-02-21T12:03:26.481Z,33.43
2019-02-21T12:05:55.847Z,33.20
2019-02-21T12:08:25.050Z,33.40
2019-02-21T12:10:54.327Z,31.67
2019-02-21T12:13:23.618Z,31.77
2019-02-21T12:15:59.038Z,31.80
2019-02-21T12:18:28.211Z,34.10
2019-02-21T12:20:57.358Z,33.17
2019-02-21T12:23:26.530Z,34.07
2019-02-21T12:25:55.729Z,33.57
2019-02-21T12:28:24.877Z,34.60
2019-02-21T12:30:54.050Z,32.53
2019-02-21T12:33:23.201Z,31.57
2019-02-21T12:35:52.472Z,31.67
2019-02-21T12:38:21.745Z,32.40
2019-02-21T12:40:50.968Z,31.97
2019-02-21T12:43:20.278Z,31.63
2019-02-21T12:45:49.481Z,28.43
2019-02-21T12:48:18.725Z,30.83
2019-02-21T12:50:47.892Z,29.23
2019-02-21T12:53:17.063Z,28.87
2019-02-21T12:55:46.323Z,28.97
2019-02-21T12:58:15.609Z,25.10
2019-02-21T13:00:44.765Z,28.87
2019-02-21T13:03:13.958Z,27.80
2019-02-21T13:05:44.650Z,28.83
2019-02-21T13:08:13.999Z,28.83
2019-02-21T13:10:43.297Z,28.33
2019-02-21T13:13:12.604Z,27.40
2019-02-21T13:15:41.954Z,23.90
2019-02-21T13:18:15.907Z,25.47
2019-02-21T13:20:42.055Z,24.80
2019-02-21T13:23:11.447Z,23.27
2019-02-21T13:25:40.813Z,24.37
2019-02-21T13:28:10.035Z,25.43
2019-02-21T13:30:39.255Z,25.00
2019-02-21T13:33:08.397Z,24.03
2019-02-21T13:35:37.556Z,24.37
2019-02-21T13:38:06.957Z,23.00
2019-02-21T13:40:36.211Z,23.00
2019-02-21T13:43:05.434Z,20.57
2019-02-21T13:45:34.554Z,21.67
2019-02-21T13:48:03.744Z,20.63
2019-02-21T13:50:32.949Z,19.77
2019-02-21T13:53:02.608Z,19.10
2019-02-21T13:55:31.769Z,18.37
2019-02-21T13:58:02.718Z,15.60
2019-02-21T14:00:32.007Z,15.80
2019-02-21T14:03:01.264Z,14.60
2019-02-21T14:05:30.469Z,13.80
2019-02-21T14:07:59.632Z,13.37
2019-02-21T14:10:29.023Z,13.07
2019-02-21T14:12:58.149Z,13.20
2019-02-21T14:15:27.492Z,12.87
2019-02-21T14:17:56.652Z,13.23
2019-02-21T14:20:25.817Z,13.00
2019-02-21T14:22:55.065Z,13.40
2019-02-21T14:25:24.243Z,12.43
2019-02-21T14:27:53.427Z,12.97
2019-02-21T14:30:23.277Z,12.93
2019-02-21T14:32:52.469Z,12.80
2019-02-21T14:35:21.665Z,13.00
2019-02-21T14:37:50.878Z,11.97
2019-02-21T14:40:20.496Z,12.53
2019-02-21T14:42:49.678Z,12.30
2019-02-21T14:45:19.108Z,12.23
2019-02-21T14:47:48.345Z,12.70
2019-02-21T14:52:56.877Z,13.27
2019-02-21T14:55:26.174Z,12.50
2019-02-21T14:57:55.373Z,13.00
2019-02-21T15:00:24.738Z,12.73
2019-02-21T15:02:53.929Z,13.00
2019-02-21T15:05:23.147Z,11.53
2019-02-21T15:07:52.299Z,11.87
2019-02-21T15:10:21.541Z,12.70
2019-02-21T15:12:50.940Z,11.43
2019-02-21T15:15:22.054Z,12.00
2019-02-21T15:17:51.701Z,12.57
2019-02-21T15:20:22.605Z,12.60
2019-02-21T15:22:53.919Z,12.47
2019-02-21T15:25:22.702Z,12.77
2019-02-21T15:27:52.035Z,12.03
2019-02-21T15:30:21.222Z,13.20
2019-02-21T15:32:50.894Z,12.40
2019-02-21T15:35:20.193Z,11.70
2019-02-21T15:37:49.355Z,11.97
2019-02-21T15:40:21.247Z,12.83
2019-02-21T15:42:52.536Z,12.80
2019-02-21T15:45:23.474Z,12.57
2019-02-21T15:47:52.571Z,13.53
2019-02-21T15:50:21.757Z,12.70
2019-02-21T15:52:51.022Z,14.00
2019-02-21T15:55:20.260Z,13.40
2019-02-21T15:57:49.652Z,13.87
2019-02-21T16:00:21.253Z,12.93
2019-02-21T16:02:50.530Z,13.77
2019-02-21T16:05:19.955Z,15.67
2019-02-21T16:07:49.446Z,17.93
2019-02-21T16:10:21.955Z,19.40
2019-02-21T16:12:51.545Z,21.10
2019-02-21T16:15:21.046Z,20.77
2019-02-21T16:17:50.214Z,21.77
2019-02-21T16:20:22.888Z,22.93
2019-02-21T16:22:52.211Z,22.53
2019-02-21T16:25:21.819Z,23.17
2019-02-21T16:27:50.998Z,22.27
2019-02-21T16:30:23.576Z,23.40
2019-02-21T16:32:52.802Z,25.07
2019-02-21T16:35:22.019Z,25.47
2019-02-21T16:37:51.453Z,26.27
2019-02-21T16:40:20.658Z,26.93
2019-02-21T16:42:49.903Z,26.17
2019-02-21T16:45:19.206Z,28.07
2019-02-21T16:47:48.574Z,29.07
2019-02-21T16:50:28.785Z,29.00
2019-02-21T16:52:49.179Z,28.10
2019-02-21T16:55:19.173Z,29.43
2019-02-21T16:57:48.519Z,29.23
2019-02-21T17:00:19.866Z,28.37
2019-02-21T17:02:49.034Z,28.60
2019-02-21T17:05:18.284Z,28.97
2019-02-21T17:07:47.449Z,30.20
2019-02-21T17:10:17.018Z,34.00
2019-02-21T17:12:46.322Z,31.80
2019-02-21T17:15:15.659Z,35.17
2019-02-21T17:17:44.885Z,35.83
2019-02-21T17:20:15.388Z,37.90
2019-02-21T17:22:44.749Z,39.07
2019-02-21T17:25:16.221Z,38.13
2019-02-21T17:27:45.461Z,39.30
2019-02-21T17:30:16.441Z,41.50
2019-02-21T17:32:45.677Z,40.80
2019-02-21T17:35:15.485Z,43.10
2019-02-21T17:37:44.701Z,44.73
2019-02-21T17:40:16.565Z,44.67
2019-02-21T17:42:45.759Z,43.63
2019-02-21T17:45:15.074Z,44.80
2019-02-21T17:47:44.366Z,44.27
2019-02-21T17:50:14.541Z,46.03
2019-02-21T17:52:43.792Z,43.37
2019-02-21T17:55:13.115Z,45.83
2019-02-21T17:57:42.306Z,44.77
2019-02-21T18:00:17.426Z,42.03
2019-02-21T18:02:46.853Z,39.03
2019-02-21T18:05:16.083Z,37.57
2019-02-21T18:07:45.562Z,36.17
2019-02-21T18:10:14.952Z,36.53
2019-02-21T18:12:44.149Z,35.77
2019-02-21T18:15:13.743Z,35.47
2019-02-21T18:17:43.027Z,33.30
2019-02-21T18:20:12.567Z,32.47
2019-02-21T18:22:41.943Z,34.30
2019-02-21T18:25:14.359Z,33.93
2019-02-21T18:27:45.777Z,33.37
2019-02-21T18:30:16.219Z,32.93
2019-02-21T18:32:45.666Z,34.10
2019-02-21T18:35:14.918Z,33.50
2019-02-21T18:37:47.318Z,32.70
2019-02-21T18:40:17.718Z,32.50
2019-02-21T18:42:47.459Z,34.63
2019-02-21T18:45:17.237Z,32.07
2019-02-21T18:47:46.499Z,33.80
2019-02-21T18:50:17.343Z,34.97
2019-02-21T18:52:46.549Z,36.93
2019-02-21T18:55:16.366Z,36.33
2019-02-21T18:57:45.664Z,36.23
2019-02-21T19:00:16.504Z,34.37
2019-02-21T19:02:46.017Z,34.53
2019-02-21T19:05:15.480Z,33.07
2019-02-21T19:07:44.859Z,33.57
2019-02-21T19:10:15.371Z,35.50
2019-02-21T19:12:44.971Z,33.80
2019-02-21T19:15:15.132Z,34.03
2019-02-21T19:17:44.512Z,34.60
2019-02-21T19:20:15.435Z,35.13
2019-02-21T19:22:45.152Z,33.93
2019-02-21T19:25:14.917Z,35.57
2019-02-21T19:27:44.477Z,35.40
2019-02-21T19:30:17.681Z,35.80
2019-02-21T19:32:47.044Z,36.33
2019-02-21T19:35:17.276Z,35.30
2019-02-21T19:37:46.996Z,37.43
2019-02-21T19:40:16.593Z,38.00
2019-02-21T19:42:46.036Z,36.63
2019-02-21T19:45:15.743Z,37.97
2019-02-21T19:47:45.171Z,38.57
2019-02-21T19:50:14.499Z,36.67
2019-02-21T19:52:43.781Z,37.37
2019-02-21T19:55:13.418Z,37.83
2019-02-21T19:57:45.267Z,36.27
2019-02-21T20:00:16.483Z,36.60
2019-02-21T20:02:46.500Z,37.13
2019-02-21T20:05:16.428Z,38.77
2019-02-21T20:07:47.113Z,37.37
2019-02-21T20:10:16.626Z,39.33
2019-02-21T20:12:46.185Z,37.10
2019-02-21T20:15:16.745Z,39.70
2019-02-21T20:17:46.686Z,40.03
2019-02-21T20:20:16.963Z,37.90
2019-02-21T20:22:46.623Z,37.37
2019-02-21T20:25:16.373Z,38.40
2019-02-21T20:27:45.651Z,38.80
2019-02-21T20:30:16.477Z,40.83
2019-02-21T20:32:46.073Z,38.73
2019-02-21T20:35:16.041Z,38.33
2019-02-21T20:37:46.945Z,39.57
2019-02-21T20:40:16.855Z,39.33
2019-02-21T20:42:46.700Z,39.03
2019-02-21T20:45:16.079Z,39.73
2019-02-21T20:47:45.481Z,40.43
2019-02-21T20:50:15.283Z,41.87
2019-02-21T20:52:46.066Z,40.20
2019-02-21T20:55:16.525Z,42.03
2019-02-21T20:57:46.259Z,40.87
2019-02-21T21:00:19.968Z,40.43
2019-02-21T21:02:49.300Z,42.37
2019-02-21T21:05:20.715Z,42.20
2019-02-21T21:07:50.152Z,42.60
2019-02-21T21:10:20.087Z,44.87
2019-02-21T21:12:49.572Z,43.87
2019-02-21T21:15:19.191Z,43.70
2019-02-21T21:17:48.688Z,43.77
2019-02-21T21:20:21.074Z,42.73
2019-02-21T21:22:50.847Z,43.70
2019-02-21T21:25:20.063Z,41.87
2019-02-21T21:27:49.317Z,43.50
2019-02-21T21:30:18.670Z,44.03
2019-02-21T21:32:48.209Z,44.70
2019-02-21T21:35:17.522Z,44.47
2019-02-21T21:37:46.723Z,44.97
2019-02-21T21:40:16.646Z,46.60
2019-02-21T21:42:45.910Z,45.03
2019-02-21T21:45:16.327Z,45.83
2019-02-21T21:47:45.499Z,44.30
2019-02-21T21:50:15.231Z,47.07
2019-02-21T21:52:44.523Z,45.83
2019-02-21T21:55:13.838Z,45.40
2019-02-21T21:57:42.989Z,46.63
2019-02-21T22:00:17.877Z,45.77
2019-02-21T22:02:46.894Z,45.80
2019-02-21T22:05:16.082Z,46.57
2019-02-21T22:07:45.703Z,45.37
2019-02-21T22:10:15.132Z,46.30
2019-02-21T22:12:44.737Z,46.93
2019-02-21T22:15:14.189Z,46.77
2019-02-21T22:17:43.403Z,46.03
2019-02-21T22:20:17.052Z,44.23
2019-02-21T22:22:46.465Z,43.47
2019-02-21T22:25:15.657Z,45.97
2019-02-21T22:27:45.213Z,45.57
2019-02-21T22:30:15.840Z,42.77
2019-02-21T22:32:45.054Z,45.77
2019-02-21T22:35:14.362Z,43.67
2019-02-21T22:37:43.554Z,44.83
2019-02-21T22:40:14.088Z,43.77
2019-02-21T22:42:43.426Z,44.53
2019-02-21T22:45:12.583Z,43.63
2019-02-21T22:47:41.781Z,43.40
2019-02-21T22:50:13.154Z,43.63
2019-02-21T22:52:42.533Z,45.93
2019-02-21T22:55:11.701Z,45.10
2019-02-21T22:57:40.985Z,44.80
